createdAt,value
2018-10-18T00:00:08.215Z,12.70
2018-10-18T00:02:37.929Z,12.60
2018-10-18T00:05:08.333Z,12.60
2018-10-18T00:07:38.088Z,12.70
2018-10-18T00:10:08.715Z,12.60
2018-10-18T00:12:38.413Z,12.60
2018-10-18T00:15:08.868Z,12.50
2018-10-18T00:17:43.686Z,12.50
2018-10-18T00:20:13.782Z,12.50
2018-10-18T00:22:44.091Z,12.40
2018-10-18T00:25:13.965Z,12.30
2018-10-18T00:27:43.669Z,12.30
2018-10-18T00:30:14.557Z,12.40
2018-10-18T00:32:44.814Z,12.50
2018-10-18T00:35:14.429Z,12.50
2018-10-18T00:37:44.237Z,12.50
2018-10-18T00:40:13.795Z,12.60
2018-10-18T00:42:43.517Z,12.60
2018-10-18T00:45:13.287Z,12.60
2018-10-18T00:47:42.784Z,12.70
2018-10-18T00:50:12.852Z,12.70
2018-10-18T00:52:42.494Z,12.60
2018-10-18T00:55:12.517Z,12.60
2018-10-18T00:57:42.525Z,12.60
2018-10-18T01:00:12.652Z,12.60
2018-10-18T01:02:42.268Z,12.60
2018-10-18T01:05:11.915Z,12.60
2018-10-18T01:07:41.519Z,12.50
2018-10-18T01:10:11.077Z,12.50
2018-10-18T01:12:40.865Z,12.50
2018-10-18T01:15:10.394Z,12.50
2018-10-18T01:17:39.913Z,12.50
2018-10-18T01:20:09.735Z,12.50
2018-10-18T01:22:39.171Z,12.50
2018-10-18T01:25:08.736Z,12.50
2018-10-18T01:27:38.473Z,12.50
2018-10-18T01:30:08.184Z,12.50
2018-10-18T01:32:37.859Z,12.50
2018-10-18T01:35:09.451Z,12.40
2018-10-18T01:37:39.143Z,12.40
2018-10-18T01:40:09.041Z,12.30
2018-10-18T01:42:38.593Z,12.30
2018-10-18T01:45:08.203Z,12.20
2018-10-18T01:47:37.937Z,12.20
2018-10-18T01:50:08.690Z,12.20
2018-10-18T01:52:38.449Z,12.10
2018-10-18T01:55:08.877Z,12.00
2018-10-18T01:57:38.346Z,12.00
2018-10-18T02:00:09.045Z,12.00
2018-10-18T02:02:38.739Z,12.00
2018-10-18T02:05:08.346Z,12.00
2018-10-18T02:07:37.877Z,12.00
2018-10-18T02:10:07.714Z,11.90
2018-10-18T02:12:37.317Z,11.70
2018-10-18T02:15:09.345Z,11.50
2018-10-18T02:17:38.818Z,11.40
2018-10-18T02:20:09.517Z,11.50
2018-10-18T02:22:39.553Z,11.60
2018-10-18T02:25:09.366Z,11.40
2018-10-18T02:27:39.096Z,11.30
2018-10-18T02:30:08.791Z,11.40
2018-10-18T02:32:38.266Z,11.50
2018-10-18T02:35:09.747Z,11.40
2018-10-18T02:37:39.458Z,11.50
2018-10-18T02:40:09.000Z,11.50
2018-10-18T02:42:38.553Z,11.40
2018-10-18T02:45:08.111Z,11.40
2018-10-18T02:47:37.633Z,11.40
2018-10-18T02:50:07.391Z,11.50
2018-10-18T02:52:36.919Z,11.50
2018-10-18T02:55:06.574Z,11.60
2018-10-18T02:57:36.319Z,11.60
2018-10-18T03:00:06.827Z,11.40
2018-10-18T03:02:36.319Z,11.20
2018-10-18T03:05:06.720Z,11.20
2018-10-18T03:07:36.412Z,11.30
2018-10-18T03:10:07.117Z,11.30
2018-10-18T03:12:36.768Z,11.20
2018-10-18T03:15:07.759Z,11.10
2018-10-18T03:17:37.411Z,11.10
2018-10-18T03:20:07.214Z,11.10
2018-10-18T03:22:36.952Z,11.10
2018-10-18T03:25:07.857Z,11.10
2018-10-18T03:27:37.456Z,11.10
2018-10-18T03:30:07.907Z,11.20
2018-10-18T03:32:37.408Z,11.30
2018-10-18T03:35:09.174Z,11.20
2018-10-18T03:37:39.166Z,11.30
2018-10-18T03:40:09.233Z,11.40
2018-10-18T03:42:38.778Z,11.50
2018-10-18T03:45:08.434Z,11.60
2018-10-18T03:47:38.026Z,11.60
2018-10-18T03:50:07.749Z,11.60
2018-10-18T03:52:37.226Z,11.50
2018-10-18T03:55:07.283Z,11.50
2018-10-18T03:57:36.853Z,11.40
2018-10-18T04:00:07.319Z,11.40
2018-10-18T04:02:37.038Z,11.30
2018-10-18T04:05:07.397Z,11.30
2018-10-18T04:07:37.121Z,11.20
2018-10-18T04:10:06.942Z,11.30
2018-10-18T04:12:36.535Z,11.40
2018-10-18T04:15:06.979Z,11.40
2018-10-18T04:17:36.503Z,11.50
2018-10-18T04:20:07.068Z,11.60
2018-10-18T04:22:36.847Z,11.60
2018-10-18T04:25:07.805Z,11.60
2018-10-18T04:27:37.576Z,11.50
2018-10-18T04:30:07.991Z,11.50
2018-10-18T04:32:37.505Z,11.50
2018-10-18T04:35:07.734Z,11.50
2018-10-18T04:37:37.541Z,11.50
2018-10-18T04:40:07.332Z,11.60
2018-10-18T04:42:36.927Z,11.60
2018-10-18T04:45:07.430Z,11.60
2018-10-18T04:47:37.078Z,11.50
2018-10-18T04:50:07.971Z,11.40
2018-10-18T04:52:37.672Z,11.30
2018-10-18T04:55:07.449Z,11.10
2018-10-18T04:57:37.135Z,11.00
2018-10-18T05:00:07.402Z,11.10
2018-10-18T05:02:37.318Z,11.10
2018-10-18T05:05:17.904Z,11.10
2018-10-18T05:07:47.768Z,11.20
2018-10-18T05:10:17.636Z,11.20
2018-10-18T05:12:47.271Z,11.20
2018-10-18T05:15:16.986Z,11.30
2018-10-18T05:17:46.770Z,11.20
2018-10-18T05:20:16.407Z,11.10
2018-10-18T05:22:46.085Z,11.00
2018-10-18T05:25:15.906Z,10.80
2018-10-18T05:27:45.471Z,10.70
2018-10-18T05:30:15.162Z,10.70
2018-10-18T05:32:44.919Z,10.80
2018-10-18T05:35:14.344Z,10.80
2018-10-18T05:37:44.125Z,10.90
2018-10-18T05:40:13.837Z,11.00
2018-10-18T05:42:43.324Z,11.00
2018-10-18T05:45:13.085Z,11.10
2018-10-18T05:47:42.892Z,11.20
2018-10-18T05:50:12.495Z,11.30
2018-10-18T05:52:42.932Z,11.30
2018-10-18T05:55:13.237Z,11.20
2018-10-18T05:57:43.148Z,11.20
2018-10-18T06:00:15.882Z,11.20
2018-10-18T06:02:45.839Z,11.20
2018-10-18T06:05:16.578Z,11.20
2018-10-18T06:07:46.437Z,11.30
2018-10-18T06:13:06.903Z,11.30
2018-10-18T06:15:36.589Z,11.30
2018-10-18T06:18:06.603Z,11.30
2018-10-18T06:20:36.373Z,11.40
2018-10-18T06:23:06.981Z,11.40
2018-10-18T06:25:36.402Z,11.40
2018-10-18T06:28:06.195Z,11.40
2018-10-18T06:30:35.950Z,11.30
2018-10-18T06:33:05.774Z,11.20
2018-10-18T06:35:35.424Z,11.20
2018-10-18T06:38:05.231Z,11.20
2018-10-18T06:40:34.889Z,11.30
2018-10-18T06:43:05.023Z,11.30
2018-10-18T06:45:34.599Z,11.30
2018-10-18T06:48:04.591Z,11.30
2018-10-18T06:50:34.325Z,11.30
2018-10-18T06:53:03.974Z,11.20
2018-10-18T06:55:33.719Z,11.20
2018-10-18T06:58:03.399Z,11.30
2018-10-18T07:00:33.249Z,11.20
2018-10-18T07:03:02.915Z,11.30
2018-10-18T07:05:32.645Z,11.30
2018-10-18T07:08:02.423Z,11.30
2018-10-18T07:10:32.115Z,11.40
2018-10-18T07:13:01.849Z,11.40
2018-10-18T07:15:31.433Z,11.40
2018-10-18T07:18:01.191Z,11.60
2018-10-18T07:20:30.826Z,11.60
2018-10-18T07:23:00.463Z,11.60
2018-10-18T07:25:30.227Z,11.70
2018-10-18T07:27:59.973Z,11.80
2018-10-18T07:30:29.661Z,11.80
2018-10-18T07:32:59.412Z,11.80
2018-10-18T07:35:28.971Z,11.90
2018-10-18T07:37:58.823Z,12.00
2018-10-18T07:40:28.556Z,12.00
2018-10-18T07:42:58.151Z,12.10
2018-10-18T07:45:27.927Z,12.10
2018-10-18T07:47:57.699Z,12.10
2018-10-18T07:50:27.425Z,12.20
2018-10-18T07:52:57.163Z,12.20
2018-10-18T07:55:26.939Z,12.20
2018-10-18T07:57:56.627Z,12.40
2018-10-18T08:00:26.291Z,12.40
2018-10-18T08:02:56.031Z,12.40
2018-10-18T08:05:25.673Z,12.40
2018-10-18T08:07:56.435Z,12.40
2018-10-18T08:10:26.139Z,12.40
2018-10-18T08:12:55.956Z,12.40
2018-10-18T08:15:26.375Z,12.40
2018-10-18T08:17:56.060Z,12.40
2018-10-18T08:20:25.789Z,12.50
2018-10-18T08:22:56.493Z,12.50
2018-10-18T08:25:26.301Z,12.50
2018-10-18T08:27:56.009Z,12.50
2018-10-18T08:30:25.726Z,12.60
2018-10-18T08:32:55.515Z,12.60
2018-10-18T08:35:25.219Z,12.60
2018-10-18T08:37:55.093Z,12.70
2018-10-18T08:40:24.687Z,12.70
2018-10-18T08:42:54.304Z,12.70
2018-10-18T08:45:24.096Z,12.70
2018-10-18T08:47:53.738Z,12.80
2018-10-18T08:50:23.536Z,12.80
2018-10-18T08:52:53.292Z,12.80
2018-10-18T08:55:22.906Z,12.90
2018-10-18T08:57:52.629Z,12.90
2018-10-18T09:00:22.285Z,12.90
2018-10-18T09:02:52.887Z,13.00
2018-10-18T09:05:22.559Z,13.00
2018-10-18T09:07:52.597Z,13.10
2018-10-18T09:10:22.386Z,13.10
2018-10-18T09:12:52.292Z,13.10
2018-10-18T09:15:22.104Z,13.20
2018-10-18T09:17:51.721Z,13.20
2018-10-18T09:20:21.460Z,13.20
2018-10-18T09:22:51.140Z,13.30
2018-10-18T09:25:20.983Z,13.40
2018-10-18T09:27:50.784Z,13.40
2018-10-18T09:30:20.404Z,13.40
2018-10-18T09:32:50.056Z,13.50
2018-10-18T09:35:19.777Z,13.50
2018-10-18T09:37:49.443Z,13.50
2018-10-18T09:40:19.103Z,13.60
2018-10-18T09:42:48.979Z,13.60
2018-10-18T09:45:18.755Z,13.70
2018-10-18T09:47:48.639Z,13.70
2018-10-18T09:50:18.405Z,13.80
2018-10-18T09:52:48.334Z,13.90
2018-10-18T09:55:18.207Z,13.90
2018-10-18T09:57:47.836Z,13.90
2018-10-18T10:00:22.833Z,14.00
2018-10-18T10:02:57.678Z,14.00
2018-10-18T10:05:27.495Z,14.00
2018-10-18T10:07:57.137Z,14.10
2018-10-18T10:10:26.835Z,14.10
2018-10-18T10:12:56.415Z,14.10
2018-10-18T10:15:26.154Z,14.20
2018-10-18T10:17:55.824Z,14.20
2018-10-18T10:20:25.550Z,14.20
2018-10-18T10:22:55.229Z,14.20
2018-10-18T10:25:24.994Z,14.30
2018-10-18T10:27:55.120Z,14.30
2018-10-18T10:30:25.143Z,14.30
2018-10-18T10:32:54.857Z,14.30
2018-10-18T10:35:24.768Z,14.30
2018-10-18T10:37:54.577Z,14.40
2018-10-18T10:40:24.346Z,14.40
2018-10-18T10:42:54.070Z,14.40
2018-10-18T10:45:23.794Z,14.40
2018-10-18T10:47:53.412Z,14.40
2018-10-18T10:50:23.133Z,14.40
2018-10-18T10:52:52.781Z,14.40
2018-10-18T10:55:22.373Z,14.40
2018-10-18T10:57:51.993Z,14.40
2018-10-18T11:00:36.411Z,14.40
2018-10-18T11:03:06.189Z,14.40
2018-10-18T11:05:35.893Z,14.50
2018-10-18T11:08:05.842Z,14.50
2018-10-18T11:10:35.455Z,14.50
2018-10-18T11:13:05.439Z,14.60
2018-10-18T11:15:35.184Z,14.60
2018-10-18T11:18:05.001Z,14.60
2018-10-18T11:20:34.477Z,14.60
2018-10-18T11:23:04.227Z,14.60
2018-10-18T11:25:34.000Z,14.60
2018-10-18T11:28:03.543Z,14.60
2018-10-18T11:30:41.494Z,14.60
2018-10-18T11:33:12.536Z,14.60
2018-10-18T11:35:42.392Z,14.70
2018-10-18T11:38:12.915Z,14.60
2018-10-18T11:40:42.613Z,14.60
2018-10-18T11:43:12.712Z,14.60
2018-10-18T11:45:42.337Z,14.60
2018-10-18T11:48:13.317Z,14.60
2018-10-18T11:50:43.233Z,14.60
2018-10-18T11:53:13.015Z,14.60
2018-10-18T11:55:42.851Z,14.60
2018-10-18T11:58:13.057Z,14.60
2018-10-18T12:00:42.885Z,14.60
2018-10-18T12:03:12.640Z,14.70
2018-10-18T12:05:42.377Z,14.70
2018-10-18T12:08:12.262Z,14.70
2018-10-18T12:10:41.989Z,14.70
2018-10-18T12:13:11.674Z,14.70
2018-10-18T12:15:41.425Z,14.70
2018-10-18T12:18:11.231Z,14.70
2018-10-18T12:20:40.874Z,14.70
2018-10-18T12:23:10.480Z,14.70
2018-10-18T12:25:40.196Z,14.70
2018-10-18T12:28:09.687Z,14.70
2018-10-18T12:30:39.536Z,14.70
2018-10-18T12:33:09.263Z,14.70
2018-10-18T12:35:38.927Z,14.70
2018-10-18T12:38:08.737Z,14.80
2018-10-18T12:40:38.465Z,14.80
2018-10-18T12:43:08.240Z,14.80
2018-10-18T12:45:38.025Z,14.80
2018-10-18T12:48:07.913Z,14.80
2018-10-18T12:50:37.540Z,14.80
2018-10-18T12:53:07.134Z,14.80
2018-10-18T12:55:36.836Z,14.90
2018-10-18T12:58:06.542Z,14.90
2018-10-18T13:00:36.271Z,14.90
2018-10-18T13:03:06.067Z,14.90
2018-10-18T13:05:35.804Z,14.90
2018-10-18T13:08:05.609Z,14.90
2018-10-18T13:10:35.388Z,14.90
2018-10-18T13:13:05.088Z,14.90
2018-10-18T13:15:34.690Z,14.90
2018-10-18T13:18:04.455Z,14.90
2018-10-18T13:20:34.263Z,14.90
2018-10-18T13:23:03.894Z,14.90
2018-10-18T13:25:33.656Z,14.90
2018-10-18T13:28:03.383Z,14.90
2018-10-18T13:30:33.071Z,14.90
2018-10-18T13:33:02.563Z,14.90
2018-10-18T13:35:32.204Z,14.90
2018-10-18T13:38:02.019Z,14.90
2018-10-18T13:40:31.797Z,14.90
2018-10-18T13:43:01.559Z,14.90
2018-10-18T13:45:31.221Z,14.90
2018-10-18T13:48:01.044Z,15.00
2018-10-18T13:50:30.738Z,15.00
2018-10-18T13:53:00.697Z,15.00
2018-10-18T13:55:30.314Z,15.00
2018-10-18T13:57:59.909Z,15.00
2018-10-18T14:00:30.717Z,15.10
2018-10-18T14:03:00.537Z,15.10
2018-10-18T14:05:30.157Z,15.10
2018-10-18T14:07:59.800Z,15.10
2018-10-18T14:10:29.602Z,15.00
2018-10-18T14:12:59.190Z,15.00
2018-10-18T14:15:28.979Z,15.00
2018-10-18T14:17:58.974Z,15.00
2018-10-18T14:20:28.687Z,15.00
2018-10-18T14:22:58.441Z,15.00
2018-10-18T14:25:28.231Z,15.00
2018-10-18T14:27:58.162Z,15.00
2018-10-18T14:30:28.055Z,15.00
2018-10-18T14:32:57.694Z,15.00
2018-10-18T14:35:27.485Z,15.00
2018-10-18T14:37:57.240Z,15.00
2018-10-18T14:40:26.881Z,15.00
2018-10-18T14:42:56.685Z,15.10
2018-10-18T14:45:26.375Z,15.10
2018-10-18T14:47:56.078Z,15.20
2018-10-18T14:50:25.982Z,15.10
2018-10-18T14:52:55.694Z,15.10
2018-10-18T14:55:25.527Z,15.10
2018-10-18T14:57:55.245Z,15.10
2018-10-18T15:00:24.921Z,15.10
2018-10-18T15:02:54.739Z,15.10
2018-10-18T15:05:24.471Z,15.10
2018-10-18T15:07:54.289Z,15.10
2018-10-18T15:10:24.005Z,15.10
2018-10-18T15:12:53.805Z,15.10
2018-10-18T15:15:23.543Z,15.10
2018-10-18T15:17:53.289Z,15.10
2018-10-18T15:20:23.020Z,15.10
2018-10-18T15:22:52.880Z,15.10
2018-10-18T15:25:22.766Z,15.10
2018-10-18T15:27:52.729Z,15.10
2018-10-18T15:30:22.305Z,15.10
2018-10-18T15:32:52.095Z,15.10
2018-10-18T15:35:21.802Z,15.00
2018-10-18T15:37:51.682Z,15.00
2018-10-18T15:40:21.397Z,15.00
2018-10-18T15:42:51.328Z,15.00
2018-10-18T15:45:21.138Z,15.00
2018-10-18T15:47:50.862Z,15.00
2018-10-18T15:50:20.510Z,15.00
2018-10-18T15:52:50.153Z,15.00
2018-10-18T15:55:19.836Z,15.00
2018-10-18T15:57:49.726Z,15.00
2018-10-18T16:00:19.418Z,15.00
2018-10-18T16:02:49.236Z,15.00
2018-10-18T16:05:19.017Z,15.00
2018-10-18T16:07:48.962Z,15.00
2018-10-18T16:10:18.957Z,15.00
2018-10-18T16:12:48.984Z,15.00
2018-10-18T16:15:18.840Z,15.00
2018-10-18T16:17:48.687Z,15.00
2018-10-18T16:20:18.858Z,15.00
2018-10-18T16:22:48.867Z,15.00
2018-10-18T16:25:18.738Z,15.00
2018-10-18T16:27:48.388Z,15.00
2018-10-18T16:30:18.127Z,14.90
2018-10-18T16:32:47.685Z,14.90
2018-10-18T16:35:17.740Z,14.90
2018-10-18T16:37:48.494Z,14.90
2018-10-18T16:40:18.507Z,14.90
2018-10-18T16:42:48.750Z,14.90
2018-10-18T16:45:18.755Z,14.80
2018-10-18T16:47:48.912Z,14.80
2018-10-18T16:50:18.967Z,14.80
2018-10-18T16:52:48.811Z,14.80
2018-10-18T16:55:18.520Z,14.70
2018-10-18T16:57:48.163Z,14.70
2018-10-18T17:00:18.036Z,14.70
2018-10-18T17:02:47.647Z,14.60
2018-10-18T17:05:17.372Z,14.60
2018-10-18T17:07:47.346Z,14.50
2018-10-18T17:10:17.126Z,14.50
2018-10-18T17:12:46.757Z,14.50
2018-10-18T17:15:16.416Z,14.50
2018-10-18T17:17:46.100Z,14.50
2018-10-18T17:20:15.954Z,14.50
2018-10-18T17:22:45.677Z,14.50
2018-10-18T17:25:15.301Z,14.50
2018-10-18T17:27:45.227Z,14.50
2018-10-18T17:30:15.165Z,14.40
2018-10-18T17:32:45.245Z,14.40
2018-10-18T17:35:14.700Z,14.40
2018-10-18T17:37:44.221Z,14.40
2018-10-18T17:40:13.826Z,14.30
2018-10-18T17:42:43.255Z,14.40
2018-10-18T17:45:13.114Z,14.30
2018-10-18T17:47:43.003Z,14.30
2018-10-18T17:50:12.949Z,14.30
2018-10-18T17:52:42.528Z,14.30
2018-10-18T17:55:12.416Z,14.30
2018-10-18T17:57:42.152Z,14.30
2018-10-18T18:00:13.250Z,14.30
2018-10-18T18:02:42.947Z,14.30
2018-10-18T18:05:13.464Z,14.20
2018-10-18T18:07:43.203Z,14.20
2018-10-18T18:10:14.693Z,14.20
2018-10-18T18:12:44.437Z,14.20
2018-10-18T18:15:14.123Z,14.20
2018-10-18T18:17:43.899Z,14.10
2018-10-18T18:20:13.649Z,14.10
2018-10-18T18:22:43.232Z,14.10
2018-10-18T18:25:13.203Z,14.10
2018-10-18T18:27:42.797Z,14.10
2018-10-18T18:30:13.755Z,14.10
2018-10-18T18:32:43.707Z,14.10
2018-10-18T18:35:13.565Z,14.10
2018-10-18T18:37:43.013Z,14.10
2018-10-18T18:40:12.562Z,14.00
2018-10-18T18:42:42.285Z,14.00
2018-10-18T18:45:17.166Z,14.00
2018-10-18T18:47:46.532Z,14.00
2018-10-18T18:50:15.981Z,14.00
2018-10-18T18:52:45.643Z,14.00
2018-10-18T18:55:15.272Z,14.00
2018-10-18T18:57:44.984Z,13.90
2018-10-18T19:00:14.552Z,13.90
2018-10-18T19:02:44.079Z,13.90
2018-10-18T19:05:13.689Z,13.80
2018-10-18T19:07:43.235Z,13.80
2018-10-18T19:10:12.817Z,13.80
2018-10-18T19:12:42.484Z,13.80
2018-10-18T19:15:12.311Z,13.80
2018-10-18T19:17:41.825Z,13.70
2018-10-18T19:20:11.343Z,13.70
2018-10-18T19:22:41.082Z,13.70
2018-10-18T19:25:10.555Z,13.70
2018-10-18T19:27:40.367Z,13.70
2018-10-18T19:30:11.240Z,13.70
2018-10-18T19:32:41.127Z,13.70
2018-10-18T19:35:10.761Z,13.70
2018-10-18T19:37:41.770Z,13.70
2018-10-18T19:40:11.629Z,13.70
2018-10-18T19:42:41.305Z,13.60
2018-10-18T19:45:11.032Z,13.60
2018-10-18T19:47:40.713Z,13.60
2018-10-18T19:50:10.480Z,13.60
2018-10-18T19:52:40.270Z,13.50
2018-10-18T19:55:10.187Z,13.50
2018-10-18T19:57:39.670Z,13.50
2018-10-18T20:00:09.907Z,13.40
2018-10-18T20:02:39.626Z,13.40
2018-10-18T20:05:09.534Z,13.40
2018-10-18T20:07:39.172Z,13.40
2018-10-18T20:10:09.393Z,13.40
2018-10-18T20:12:39.079Z,13.40
2018-10-18T20:15:09.017Z,13.40
2018-10-18T20:17:38.721Z,13.40
2018-10-18T20:20:09.926Z,13.40
2018-10-18T20:22:39.874Z,13.40
2018-10-18T20:25:10.363Z,13.40
2018-10-18T20:27:40.599Z,13.40
2018-10-18T20:30:13.026Z,13.30
2018-10-18T20:32:43.143Z,13.30
2018-10-18T20:35:17.920Z,13.30
2018-10-18T20:37:48.162Z,13.30
2018-10-18T20:40:17.827Z,13.30
2018-10-18T20:42:47.238Z,13.30
2018-10-18T20:45:22.006Z,13.20
2018-10-18T20:47:51.566Z,13.30
2018-10-18T20:50:21.202Z,13.30
2018-10-18T20:52:50.617Z,13.30
2018-10-18T20:55:20.187Z,13.30
2018-10-18T20:57:49.888Z,13.30
2018-10-18T21:00:19.502Z,13.30
2018-10-18T21:02:49.296Z,13.30
2018-10-18T21:05:18.972Z,13.20
2018-10-18T21:07:48.578Z,13.20
2018-10-18T21:10:18.291Z,13.20
2018-10-18T21:12:47.984Z,13.20
2018-10-18T21:15:17.611Z,13.20
2018-10-18T21:17:47.325Z,13.20
2018-10-18T21:20:17.011Z,13.10
2018-10-18T21:22:46.599Z,13.10
2018-10-18T21:25:16.367Z,13.10
2018-10-18T21:27:45.919Z,13.10
2018-10-18T21:30:15.713Z,13.10
2018-10-18T21:32:45.628Z,13.00
2018-10-18T21:35:15.444Z,12.90
2018-10-18T21:37:45.489Z,12.80
2018-10-18T21:40:15.864Z,12.80
2018-10-18T21:42:45.527Z,12.70
2018-10-18T21:45:15.700Z,12.70
2018-10-18T21:47:45.460Z,12.70
2018-10-18T21:50:15.116Z,12.70
2018-10-18T21:52:44.782Z,12.70
2018-10-18T21:55:14.289Z,12.70
2018-10-18T21:57:44.027Z,12.70
2018-10-18T22:00:15.702Z,12.70
2018-10-18T22:02:45.966Z,12.70
2018-10-18T22:05:16.311Z,12.70
2018-10-18T22:07:45.810Z,12.70
2018-10-18T22:10:15.603Z,12.70
2018-10-18T22:12:45.463Z,12.70
2018-10-18T22:15:15.074Z,12.70
2018-10-18T22:17:44.685Z,12.70
2018-10-18T22:20:14.287Z,12.70
2018-10-18T22:22:43.929Z,12.70
2018-10-18T22:25:13.687Z,12.70
2018-10-18T22:27:43.189Z,12.70
2018-10-18T22:30:12.709Z,12.70
2018-10-18T22:32:42.405Z,12.70
2018-10-18T22:35:11.965Z,12.70
2018-10-18T22:37:41.580Z,12.70
2018-10-18T22:40:11.202Z,12.70
2018-10-18T22:42:40.763Z,12.70
2018-10-18T22:45:10.399Z,12.70
2018-10-18T22:47:39.985Z,12.70
2018-10-18T22:50:09.522Z,12.70
2018-10-18T22:52:38.989Z,12.70
2018-10-18T22:55:08.565Z,12.60
2018-10-18T22:57:38.313Z,12.60
2018-10-18T23:00:08.717Z,12.60
2018-10-18T23:02:38.224Z,12.60
2018-10-18T23:05:07.950Z,12.60
2018-10-18T23:07:37.549Z,12.60
2018-10-18T23:10:07.439Z,12.60
2018-10-18T23:12:37.072Z,12.60
2018-10-18T23:15:08.522Z,12.60
2018-10-18T23:17:38.451Z,12.60
2018-10-18T23:20:08.872Z,12.60
2018-10-18T23:22:38.412Z,12.50
2018-10-18T23:25:07.875Z,12.50
2018-10-18T23:27:37.586Z,12.50
2018-10-18T23:30:08.246Z,12.40
2018-10-18T23:32:37.951Z,12.40
2018-10-18T23:35:07.623Z,12.30
2018-10-18T23:37:37.361Z,12.30
2018-10-18T23:40:07.141Z,12.40
2018-10-18T23:42:36.788Z,12.40
2018-10-18T23:45:07.800Z,12.30
2018-10-18T23:47:37.267Z,12.40
2018-10-18T23:50:06.888Z,12.30
2018-10-18T23:52:36.536Z,12.30
2018-10-18T23:55:06.275Z,12.30
2018-10-18T23:57:35.893Z,12.30
